Time;durP1;ratioP1;P1;durP2;ratioP2;P2;SDS_P1;SDS_P2;PMS_P1;PMS_P2;Temp;Humidity;BMP_temperature;BMP_pressure;BME280_temperature;BME280_humidity;BME280_pressure;Samples;Min_cycle;Max_cycle;Signal;HPM_P1;HPM_P2
2022/12/25 00:02:06;;;;;;;43.83;15.90;;;;;;;;;;5054750;28;20195;-66
2022/12/25 00:04:33;;;;;;;42.83;15.30;;;;;;;;;;5054674;28;20197;-66
2022/12/25 00:07:00;;;;;;;33.15;17.48;;;;;;;;;;5054256;28;20205;-66
2022/12/25 00:09:27;;;;;;;33.45;15.23;;;;;;;;;;5054465;28;20526;-66
2022/12/25 00:11:55;;;;;;;42.47;14.80;;;;;;;;;;5054643;28;20233;-66
2022/12/25 00:14:22;;;;;;;36.03;16.33;;;;;;;;;;5054040;28;20202;-66
2022/12/25 00:16:49;;;;;;;43.58;15.35;;;;;;;;;;5054012;28;20225;-66
2022/12/25 00:19:17;;;;;;;41.45;14.98;;;;;;;;;;5054266;28;20237;-66
2022/12/25 00:21:45;;;;;;;39.65;15.32;;;;;;;;;;5054240;28;20542;-66
2022/12/25 00:24:12;;;;;;;35.83;14.00;;;;;;;;;;5054147;28;20194;-66
2022/12/25 00:26:39;;;;;;;40.30;16.00;;;;;;;;;;5054839;28;20198;-66
2022/12/25 00:29:06;;;;;;;43.10;14.85;;;;;;;;;;5054061;28;20202;-66
2022/12/25 00:31:34;;;;;;;38.42;14.55;;;;;;;;;;5053818;28;20201;-66
2022/12/25 00:34:01;;;;;;;41.40;14.10;;;;;;;;;;5054031;28;20613;-66
2022/12/25 00:36:29;;;;;;;29.75;14.80;;;;;;;;;;5054067;28;20584;-66
2022/12/25 00:38:57;;;;;;;36.17;14.50;;;;;;;;;;5054134;28;20559;-66
2022/12/25 00:44:06;;;;;;;48.15;20.45;;;;;;;;;;5053470;28;20228;-67
2022/12/25 00:46:33;;;;;;;45.67;15.25;;;;;;;;;;5054116;28;20205;-66
2022/12/25 00:49:00;;;;;;;36.30;15.45;;;;;;;;;;5053802;28;20202;-67
2022/12/25 00:51:27;;;;;;;51.15;15.90;;;;;;;;;;5054142;28;20208;-66
2022/12/25 00:53:56;;;;;;;50.22;15.82;;;;;;;;;;5053674;28;20195;-67
2022/12/25 00:56:23;;;;;;;41.15;14.85;;;;;;;;;;5053648;28;20627;-66
2022/12/25 00:58:50;;;;;;;35.45;13.93;;;;;;;;;;5053959;28;20565;-68
2022/12/25 01:01:17;;;;;;;41.08;14.80;;;;;;;;;;5054029;28;20199;-66
2022/12/25 01:03:44;;;;;;;32.17;15.77;;;;;;;;;;5053596;28;20198;-67
2022/12/25 01:06:12;;;;;;;45.80;15.05;;;;;;;;;;5054284;28;20223;-66
2022/12/25 01:10:20;;;;;;;37.80;15.02;;;;;;;;;;5053696;28;20199;-67
2022/12/25 01:11:28;;;;;;;39.58;13.00;;;;;;;;;;5053264;28;20284;-67
2022/12/25 01:13:56;;;;;;;34.33;13.40;;;;;;;;;;5053575;28;20195;-65
2022/12/25 01:16:23;;;;;;;40.05;13.95;;;;;;;;;;5053114;28;20292;-67
2022/12/25 01:18:50;;;;;;;36.10;13.95;;;;;;;;;;5053020;28;20202;-67
2022/12/25 01:21:20;;;;;;;43.53;16.05;;;;;;;;;;5053414;28;20210;-67
2022/12/25 01:23:48;;;;;;;36.42;12.88;;;;;;;;;;5053503;28;20279;-67
2022/12/25 01:26:15;;;;;;;36.00;13.15;;;;;;;;;;5053370;28;20198;-67
2022/12/25 01:28:44;;;;;;;38.30;13.85;;;;;;;;;;5053532;28;20600;-67
2022/12/25 01:31:12;;;;;;;28.08;12.13;;;;;;;;;;5053211;28;20198;-67
2022/12/25 01:33:39;;;;;;;33.53;11.43;;;;;;;;;;5053867;28;20664;-67
2022/12/25 01:36:12;;;;;;;38.42;11.77;;;;;;;;;;5053362;28;20197;-67
2022/12/25 01:38:39;;;;;;;31.70;12.15;;;;;;;;;;5052950;28;20679;-66
2022/12/25 01:41:07;;;;;;;33.05;11.80;;;;;;;;;;5053371;28;20194;-66
2022/12/25 01:43:34;;;;;;;29.33;9.68;;;;;;;;;;5053209;28;20201;-66
2022/12/25 01:46:04;;;;;;;22.92;10.35;;;;;;;;;;5053075;28;20199;-66
2022/12/25 01:48:33;;;;;;;26.08;9.88;;;;;;;;;;5054076;28;20202;-66
2022/12/25 01:51:02;;;;;;;25.35;10.27;;;;;;;;;;5057040;28;20195;-66
2022/12/25 01:53:29;;;;;;;38.30;10.13;;;;;;;;;;5056786;28;20198;-66
2022/12/25 01:55:58;;;;;;;36.03;11.00;;;;;;;;;;5056623;28;20205;-66
2022/12/25 01:58:26;;;;;;;26.25;10.98;;;;;;;;;;5056935;28;20664;-66
2022/12/25 02:00:53;;;;;;;22.17;12.82;;;;;;;;;;5057076;28;20552;-66
2022/12/25 02:03:23;;;;;;;29.60;11.05;;;;;;;;;;5056634;28;20202;-67
2022/12/25 02:05:51;;;;;;;26.10;9.95;;;;;;;;;;5056477;28;20252;-67
2022/12/25 02:08:19;;;;;;;32.72;9.85;;;;;;;;;;5056760;28;20660;-66
2022/12/25 02:10:46;;;;;;;28.77;11.50;;;;;;;;;;5056341;28;20230;-66
2022/12/25 02:13:14;;;;;;;16.75;9.43;;;;;;;;;;5057064;28;20198;-67
2022/12/25 02:15:47;;;;;;;24.80;9.98;;;;;;;;;;5056822;28;20224;-67
2022/12/25 02:18:19;;;;;;;26.88;9.43;;;;;;;;;;5056765;28;20217;-67
2022/12/25 02:21:03;;;;;;;21.58;11.02;;;;;;;;;;5056685;28;20194;-67
2022/12/25 02:23:42;;;;;;;28.40;10.43;;;;;;;;;;5056272;28;20190;-67
2022/12/25 02:26:17;;;;;;;19.70;10.10;;;;;;;;;;5056733;28;20183;-66
2022/12/25 02:28:51;;;;;;;23.10;9.70;;;;;;;;;;5056148;28;20204;-67
2022/12/25 02:31:19;;;;;;;25.65;10.48;;;;;;;;;;5056208;28;20925;-67
2022/12/25 02:34:04;;;;;;;20.20;9.40;;;;;;;;;;5056119;28;20199;-67
2022/12/25 02:36:33;;;;;;;29.87;12.07;;;;;;;;;;5056237;28;20186;-67
2022/12/25 02:41:47;;;;;;;23.42;8.88;;;;;;;;;;5055995;28;20577;-67
2022/12/25 03:06:43;;;;;;;22.73;9.40;;;;;;;;;;5055495;28;20401;-67
2022/12/25 03:11:59;;;;;;;17.40;9.02;;;;;;;;;;5055130;28;20279;-67
2022/12/25 03:17:12;;;;;;;21.77;8.73;;;;;;;;;;5055495;28;20597;-67
2022/12/25 03:27:55;;;;;;;19.50;8.25;;;;;;;;;;5055176;28;20554;-67
2022/12/25 03:33:06;;;;;;;27.50;9.03;;;;;;;;;;5011007;28;20209;-67
2022/12/25 03:35:43;;;;;;;24.45;7.10;;;;;;;;;;5055106;28;20449;-66
2022/12/25 04:36:35;;;;;;;14.23;7.65;;;;;;;;;;5053825;28;20228;-67
2022/12/25 04:39:04;;;;;;;27.17;9.40;;;;;;;;;;5053509;28;20257;-65
2022/12/25 04:41:31;;;;;;;16.42;7.15;;;;;;;;;;5054051;28;20558;-67
2022/12/25 04:43:59;;;;;;;19.33;6.93;;;;;;;;;;5054184;28;20281;-66
2022/12/25 04:46:26;;;;;;;18.97;7.33;;;;;;;;;;5053959;28;20445;-66
2022/12/25 04:48:53;;;;;;;19.73;7.90;;;;;;;;;;5053784;28;20448;-66
2022/12/25 04:51:21;;;;;;;16.45;7.43;;;;;;;;;;5053526;28;20204;-66
2022/12/25 04:53:49;;;;;;;17.33;8.67;;;;;;;;;;5034309;28;20204;-66
2022/12/25 04:56:18;;;;;;;19.90;8.53;;;;;;;;;;5033771;28;20439;-66
2022/12/25 04:58:45;;;;;;;13.83;6.97;;;;;;;;;;5033640;28;20478;-66
2022/12/25 05:01:13;;;;;;;19.17;7.90;;;;;;;;;;5033521;28;20931;-66
2022/12/25 05:03:40;;;;;;;12.13;7.13;;;;;;;;;;5033291;28;20443;-66
2022/12/25 05:06:07;;;;;;;16.83;8.60;;;;;;;;;;5033497;28;20214;-66
2022/12/25 05:08:35;;;;;;;13.88;7.00;;;;;;;;;;5033540;28;20445;-66
2022/12/25 05:11:05;;;;;;;19.00;7.80;;;;;;;;;;5033456;28;20231;-66
2022/12/25 05:13:34;;;;;;;19.40;7.53;;;;;;;;;;5033124;28;20435;-66
2022/12/25 05:16:04;;;;;;;11.00;6.37;;;;;;;;;;5033405;28;20446;-66
2022/12/25 05:18:31;;;;;;;11.27;6.95;;;;;;;;;;5033479;28;20474;-66
2022/12/25 05:20:59;;;;;;;14.43;7.00;;;;;;;;;;5033454;28;20195;-66
2022/12/25 05:23:26;;;;;;;16.88;8.20;;;;;;;;;;5032811;28;20282;-66
2022/12/25 05:25:53;;;;;;;12.10;6.70;;;;;;;;;;5033258;28;20201;-66
2022/12/25 05:28:20;;;;;;;21.20;7.00;;;;;;;;;;5033285;28;20446;-66
2022/12/25 05:30:49;;;;;;;18.52;7.28;;;;;;;;;;5033489;28;20942;-66
2022/12/25 05:33:16;;;;;;;13.50;7.70;;;;;;;;;;5033068;28;20199;-66
2022/12/25 05:35:43;;;;;;;16.13;7.30;;;;;;;;;;5033020;28;20524;-66
2022/12/25 05:38:11;;;;;;;18.07;6.87;;;;;;;;;;5032824;28;20466;-65
2022/12/25 05:40:40;;;;;;;11.60;6.67;;;;;;;;;;5033363;28;20450;-65
2022/12/25 05:43:08;;;;;;;15.83;7.10;;;;;;;;;;5032892;28;20595;-65
2022/12/25 05:45:35;;;;;;;16.73;7.67;;;;;;;;;;5032966;28;20454;-64
2022/12/25 05:48:04;;;;;;;17.83;6.87;;;;;;;;;;5032979;28;20442;-66
2022/12/25 05:50:31;;;;;;;12.73;7.20;;;;;;;;;;5032893;28;20445;-65
2022/12/25 05:52:58;;;;;;;16.70;7.57;;;;;;;;;;5033067;28;20218;-65
2022/12/25 05:55:25;;;;;;;16.03;7.37;;;;;;;;;;5033138;28;20763;-65
2022/12/25 05:57:52;;;;;;;14.80;8.10;;;;;;;;;;5032937;28;20480;-66
2022/12/25 06:00:20;;;;;;;20.47;6.90;;;;;;;;;;5033078;28;20446;-65
2022/12/25 06:02:47;;;;;;;18.10;7.55;;;;;;;;;;5032975;28;20449;-65
2022/12/25 06:05:16;;;;;;;14.23;7.07;;;;;;;;;;5033072;28;20195;-65
2022/12/25 06:07:43;;;;;;;13.37;6.80;;;;;;;;;;5033067;28;20452;-66
2022/12/25 06:10:10;;;;;;;13.53;8.03;;;;;;;;;;5032785;28;20891;-65
2022/12/25 06:12:38;;;;;;;8.63;6.97;;;;;;;;;;5032627;28;20442;-66
2022/12/25 06:15:05;;;;;;;16.70;7.37;;;;;;;;;;5032599;28;20456;-65
2022/12/25 06:17:33;;;;;;;13.10;7.70;;;;;;;;;;5033028;28;20808;-65
2022/12/25 06:20:00;;;;;;;13.13;7.22;;;;;;;;;;5032807;28;20218;-65
2022/12/25 06:22:30;;;;;;;23.23;8.10;;;;;;;;;;5032949;28;20198;-65
2022/12/25 06:24:57;;;;;;;15.38;7.40;;;;;;;;;;5032604;28;20483;-65
2022/12/25 06:27:25;;;;;;;17.95;6.63;;;;;;;;;;5032585;28;20200;-65
2022/12/25 06:29:52;;;;;;;12.10;7.13;;;;;;;;;;5032674;28;20563;-66
2022/12/25 06:32:19;;;;;;;18.57;7.60;;;;;;;;;;5032822;28;20438;-65
2022/12/25 06:34:47;;;;;;;13.43;8.45;;;;;;;;;;5032479;28;20450;-65
2022/12/25 06:37:14;;;;;;;12.27;6.37;;;;;;;;;;5036339;28;20195;-65
2022/12/25 06:39:43;;;;;;;11.13;6.80;;;;;;;;;;5035700;28;20481;-65
2022/12/25 06:42:10;;;;;;;18.13;7.38;;;;;;;;;;5036070;28;20469;-65
2022/12/25 06:44:38;;;;;;;15.57;7.97;;;;;;;;;;5036162;28;20198;-66
2022/12/25 06:47:06;;;;;;;18.27;8.65;;;;;;;;;;5035839;28;20210;-66
2022/12/25 06:49:33;;;;;;;17.35;7.30;;;;;;;;;;5035665;28;20205;-66
2022/12/25 06:52:00;;;;;;;18.70;8.07;;;;;;;;;;5035887;28;20552;-66
2022/12/25 06:54:27;;;;;;;17.17;7.53;;;;;;;;;;5035935;28;20529;-66
2022/12/25 06:56:56;;;;;;;16.38;8.45;;;;;;;;;;5035916;28;20198;-66
2022/12/25 06:59:23;;;;;;;18.83;7.65;;;;;;;;;;5035474;28;20712;-67
2022/12/25 07:01:52;;;;;;;18.15;8.80;;;;;;;;;;5035736;28;20286;-65
2022/12/25 07:04:21;;;;;;;23.70;8.60;;;;;;;;;;5036010;28;20230;-65
2022/12/25 07:06:48;;;;;;;10.60;7.75;;;;;;;;;;5035828;28;20226;-65
2022/12/25 07:09:16;;;;;;;17.98;8.05;;;;;;;;;;5036255;28;20552;-65
2022/12/25 07:11:43;;;;;;;12.65;7.97;;;;;;;;;;5050286;28;20262;-65
2022/12/25 07:14:17;;;;;;;15.10;6.95;;;;;;;;;;5055513;28;20202;-65
2022/12/25 07:16:44;;;;;;;14.50;7.70;;;;;;;;;;5055809;28;20186;-65
2022/12/25 07:19:11;;;;;;;12.13;6.95;;;;;;;;;;5055439;28;20218;-65
2022/12/25 07:21:38;;;;;;;17.43;6.60;;;;;;;;;;5055413;28;20206;-65
2022/12/25 07:24:06;;;;;;;17.70;7.68;;;;;;;;;;5055004;28;20445;-65
2022/12/25 07:26:33;;;;;;;12.57;7.83;;;;;;;;;;5055013;28;20671;-65
2022/12/25 07:29:00;;;;;;;19.98;8.00;;;;;;;;;;5055198;28;20456;-65
2022/12/25 07:31:29;;;;;;;18.02;8.20;;;;;;;;;;5054954;28;20294;-65
2022/12/25 07:33:56;;;;;;;13.98;8.57;;;;;;;;;;5055556;28;20216;-65
2022/12/25 07:36:23;;;;;;;12.23;8.05;;;;;;;;;;5055259;28;20285;-65
2022/12/25 07:38:50;;;;;;;24.65;9.98;;;;;;;;;;5054901;28;20312;-66
2022/12/25 07:41:18;;;;;;;15.85;7.90;;;;;;;;;;5054730;28;20191;-65
2022/12/25 07:43:45;;;;;;;15.77;8.57;;;;;;;;;;5055005;28;20212;-65
2022/12/25 07:46:12;;;;;;;13.73;8.32;;;;;;;;;;5054150;28;20205;-65
2022/12/25 07:48:41;;;;;;;11.90;7.28;;;;;;;;;;5054918;28;20191;-66
2022/12/25 07:51:10;;;;;;;17.20;8.45;;;;;;;;;;5054757;28;20285;-65
2022/12/25 07:53:38;;;;;;;18.92;7.57;;;;;;;;;;5054608;28;20203;-69
2022/12/25 07:56:06;;;;;;;17.33;7.88;;;;;;;;;;5054786;28;20198;-64
2022/12/25 07:58:34;;;;;;;16.85;9.45;;;;;;;;;;5054680;28;20237;-64
2022/12/25 08:01:03;;;;;;;43.75;19.00;;;;;;;;;;5054314;28;20656;-64
2022/12/25 08:03:30;;;;;;;21.30;8.88;;;;;;;;;;5054710;28;20194;-64
2022/12/25 08:06:01;;;;;;;19.23;9.80;;;;;;;;;;5054463;28;20191;-64
2022/12/25 08:08:28;;;;;;;29.20;9.00;;;;;;;;;;5054836;28;20456;-67
2022/12/25 08:10:55;;;;;;;21.33;8.52;;;;;;;;;;5054496;28;20229;-64
2022/12/25 08:13:22;;;;;;;19.10;10.20;;;;;;;;;;5054475;28;20201;-65
2022/12/25 08:15:49;;;;;;;20.15;9.43;;;;;;;;;;5034931;28;20199;-65
2022/12/25 08:18:17;;;;;;;18.00;10.40;;;;;;;;;;5034159;28;20214;-65
2022/12/25 08:20:44;;;;;;;22.30;10.27;;;;;;;;;;5034321;28;20446;-65
2022/12/25 08:23:12;;;;;;;15.90;9.75;;;;;;;;;;5034344;28;20441;-65
2022/12/25 08:25:39;;;;;;;23.65;11.10;;;;;;;;;;5033862;28;20198;-65
2022/12/25 08:28:07;;;;;;;15.47;10.23;;;;;;;;;;5033861;28;20203;-65
2022/12/25 08:30:34;;;;;;;18.50;8.80;;;;;;;;;;5034119;28;20550;-65
2022/12/25 08:33:01;;;;;;;16.67;9.97;;;;;;;;;;5034173;28;20444;-65
2022/12/25 08:35:28;;;;;;;18.40;9.77;;;;;;;;;;5034159;28;20449;-64
2022/12/25 08:37:55;;;;;;;22.60;9.73;;;;;;;;;;5034040;28;20496;-66
2022/12/25 08:40:24;;;;;;;13.23;10.40;;;;;;;;;;5033445;28;20850;-65
2022/12/25 08:42:51;;;;;;;21.33;8.95;;;;;;;;;;5034239;28;20443;-65
2022/12/25 08:45:18;;;;;;;14.83;8.07;;;;;;;;;;5033721;28;20196;-65
2022/12/25 08:47:45;;;;;;;12.33;8.93;;;;;;;;;;5033635;28;20448;-65
2022/12/25 08:50:13;;;;;;;15.53;9.60;;;;;;;;;;5033327;28;20455;-65
2022/12/25 08:52:40;;;;;;;15.77;9.80;;;;;;;;;;5033795;28;20450;-65
2022/12/25 08:55:07;;;;;;;17.93;10.20;;;;;;;;;;5033278;28;20450;-65
2022/12/25 08:57:36;;;;;;;20.73;10.00;;;;;;;;;;5033127;28;20916;-65
2022/12/25 09:00:04;;;;;;;15.87;8.40;;;;;;;;;;5033308;28;20489;-68
2022/12/25 09:02:31;;;;;;;17.77;9.93;;;;;;;;;;5033925;28;20455;-65
2022/12/25 09:04:58;;;;;;;16.20;8.87;;;;;;;;;;5033314;28;20445;-65
2022/12/25 09:07:26;;;;;;;14.63;8.50;;;;;;;;;;5033257;28;20940;-65
2022/12/25 09:09:53;;;;;;;16.58;9.35;;;;;;;;;;5032960;28;20454;-65
2022/12/25 09:12:20;;;;;;;18.20;8.82;;;;;;;;;;5033198;28;20184;-65
2022/12/25 09:14:48;;;;;;;15.97;10.00;;;;;;;;;;5033374;28;20195;-65
2022/12/25 09:17:16;;;;;;;17.30;11.00;;;;;;;;;;5033435;28;20887;-65
2022/12/25 09:19:43;;;;;;;15.27;9.33;;;;;;;;;;5033519;28;20509;-65
2022/12/25 09:22:10;;;;;;;10.27;8.30;;;;;;;;;;5033239;28;20446;-64
2022/12/25 09:24:38;;;;;;;22.13;9.27;;;;;;;;;;5033779;28;20438;-65
2022/12/25 09:27:06;;;;;;;12.37;8.67;;;;;;;;;;5033253;28;20537;-65
2022/12/25 09:29:33;;;;;;;15.13;8.90;;;;;;;;;;5033324;28;20469;-65
2022/12/25 09:32:01;;;;;;;20.13;10.33;;;;;;;;;;5033153;28;20198;-66
2022/12/25 09:34:28;;;;;;;11.77;8.03;;;;;;;;;;5033671;28;20434;-65
2022/12/25 09:36:56;;;;;;;12.27;7.60;;;;;;;;;;5033422;28;20808;-65
2022/12/25 09:39:23;;;;;;;10.20;8.10;;;;;;;;;;5033184;28;20840;-65
2022/12/25 09:41:55;;;;;;;11.37;7.40;;;;;;;;;;5033232;28;20453;-65
2022/12/25 09:44:24;;;;;;;17.60;7.63;;;;;;;;;;5033175;28;20434;-65
2022/12/25 09:46:53;;;;;;;14.63;8.30;;;;;;;;;;5032974;28;20446;-65
2022/12/25 09:49:23;;;;;;;11.20;7.00;;;;;;;;;;5033105;28;20454;-65
2022/12/25 09:51:53;;;;;;;11.63;7.03;;;;;;;;;;5033052;28;20198;-65
2022/12/25 09:54:22;;;;;;;14.75;7.78;;;;;;;;;;5033472;28;20445;-65
2022/12/25 09:56:50;;;;;;;11.10;7.45;;;;;;;;;;5033072;28;20645;-65
2022/12/25 09:59:19;;;;;;;18.13;6.45;;;;;;;;;;5033361;28;20228;-65
2022/12/25 10:01:56;;;;;;;13.70;9.87;;;;;;;;;;5032720;28;20690;-65
2022/12/25 10:04:31;;;;;;;9.70;6.95;;;;;;;;;;5033626;28;20443;-65
2022/12/25 10:07:05;;;;;;;15.88;7.32;;;;;;;;;;5033112;28;20571;-65
2022/12/25 10:09:46;;;;;;;10.80;5.70;;;;;;;;;;5034156;28;20234;-65
2022/12/25 10:12:25;;;;;;;10.53;6.83;;;;;;;;;;5037004;28;20266;-65
2022/12/25 10:15:01;;;;;;;12.00;6.80;;;;;;;;;;5036933;28;20418;-66
2022/12/25 10:17:33;;;;;;;10.10;6.77;;;;;;;;;;5036483;28;20972;-65
2022/12/25 10:20:07;;;;;;;9.03;6.87;;;;;;;;;;5036410;28;20964;-65
2022/12/25 10:22:38;;;;;;;7.60;6.32;;;;;;;;;;5036973;28;20787;-65
2022/12/25 10:25:06;;;;;;;11.17;6.70;;;;;;;;;;5036869;28;20188;-65
2022/12/25 10:27:35;;;;;;;12.07;7.10;;;;;;;;;;5036239;28;20939;-65
2022/12/25 10:30:06;;;;;;;20.50;14.20;;;;;;;;;;5036542;28;20445;-65
2022/12/25 10:32:33;;;;;;;13.77;9.20;;;;;;;;;;5036109;28;20939;-65
2022/12/25 10:35:01;;;;;;;17.40;9.13;;;;;;;;;;5036518;28;20446;-65
2022/12/25 10:37:30;;;;;;;16.63;7.95;;;;;;;;;;5036339;28;20446;-65
2022/12/25 10:39:57;;;;;;;15.60;7.00;;;;;;;;;;5035841;28;20211;-65
2022/12/25 10:42:31;;;;;;;14.10;6.97;;;;;;;;;;5035905;28;20456;-65
2022/12/25 10:44:59;;;;;;;12.17;7.70;;;;;;;;;;5036256;28;20899;-65
2022/12/25 10:47:27;;;;;;;9.77;7.20;;;;;;;;;;5035873;28;20457;-65
2022/12/25 10:49:54;;;;;;;13.90;7.43;;;;;;;;;;5035860;28;20442;-65
2022/12/25 10:52:23;;;;;;;12.97;7.30;;;;;;;;;;5036048;28;20449;-65
2022/12/25 10:54:52;;;;;;;8.90;7.03;;;;;;;;;;5036067;28;20504;-65
2022/12/25 10:57:20;;;;;;;18.00;7.73;;;;;;;;;;5035660;28;20446;-65
2022/12/25 10:59:49;;;;;;;12.60;7.50;;;;;;;;;;5036617;28;20509;-65
2022/12/25 11:02:16;;;;;;;13.57;6.90;;;;;;;;;;5035873;28;20438;-65
2022/12/25 11:04:44;;;;;;;16.50;6.97;;;;;;;;;;5035614;28;20442;-65
2022/12/25 11:07:15;;;;;;;16.03;6.70;;;;;;;;;;5035813;28;20435;-65
2022/12/25 11:09:49;;;;;;;19.50;12.47;;;;;;;;;;5035570;28;20458;-65
2022/12/25 11:12:19;;;;;;;10.60;7.70;;;;;;;;;;5035756;28;20429;-65
2022/12/25 11:14:52;;;;;;;10.30;7.47;;;;;;;;;;5035366;28;20450;-65
2022/12/25 11:17:22;;;;;;;13.15;7.50;;;;;;;;;;5035783;28;20445;-65
2022/12/25 11:19:53;;;;;;;10.90;7.20;;;;;;;;;;5035545;28;20220;-65
2022/12/25 11:22:20;;;;;;;13.03;7.80;;;;;;;;;;5035191;28;20430;-66
2022/12/25 11:24:47;;;;;;;14.43;8.07;;;;;;;;;;5035223;28;20451;-65
2022/12/25 11:27:26;;;;;;;13.20;7.73;;;;;;;;;;5035435;28;20478;-66
2022/12/25 11:29:56;;;;;;;12.10;6.93;;;;;;;;;;5035701;28;20510;-65
2022/12/25 11:32:28;;;;;;;16.80;8.07;;;;;;;;;;5042121;28;20442;-65
2022/12/25 11:34:56;;;;;;;10.97;6.83;;;;;;;;;;5055493;28;20429;-65
2022/12/25 11:37:26;;;;;;;10.37;6.80;;;;;;;;;;5055069;28;20448;-66
2022/12/25 11:39:53;;;;;;;10.37;7.10;;;;;;;;;;5054900;28;20533;-65
2022/12/25 11:42:22;;;;;;;10.60;6.50;;;;;;;;;;5054589;28;20444;-65
2022/12/25 11:44:54;;;;;;;9.03;6.57;;;;;;;;;;5054967;28;20445;-65
2022/12/25 11:47:24;;;;;;;10.67;6.80;;;;;;;;;;5054974;28;20736;-66
2022/12/25 11:49:53;;;;;;;10.40;6.73;;;;;;;;;;5054605;28;20434;-65
2022/12/25 11:52:21;;;;;;;10.97;7.70;;;;;;;;;;5054791;28;20438;-66
2022/12/25 11:54:52;;;;;;;11.00;8.40;;;;;;;;;;5054785;28;20449;-65
2022/12/25 11:57:19;;;;;;;23.53;9.60;;;;;;;;;;5054724;28;20774;-65
2022/12/25 11:59:52;;;;;;;15.20;6.97;;;;;;;;;;5054209;28;20487;-65
2022/12/25 12:02:25;;;;;;;11.13;8.13;;;;;;;;;;5042866;28;20441;-65
2022/12/25 12:05:01;;;;;;;22.17;9.80;;;;;;;;;;5034719;28;20435;-65
2022/12/25 12:07:29;;;;;;;16.50;10.33;;;;;;;;;;5034660;28;20194;-65
2022/12/25 12:10:01;;;;;;;19.83;11.10;;;;;;;;;;5034458;28;20458;-65
2022/12/25 12:12:32;;;;;;;24.60;12.27;;;;;;;;;;5034315;28;20434;-65
2022/12/25 12:15:03;;;;;;;17.63;11.47;;;;;;;;;;5034522;28;20513;-65
2022/12/25 12:17:32;;;;;;;18.10;11.60;;;;;;;;;;5034081;28;20422;-66
2022/12/25 12:20:10;;;;;;;15.20;10.17;;;;;;;;;;5034237;28;20488;-68
2022/12/25 12:22:37;;;;;;;19.20;8.77;;;;;;;;;;5034382;28;20418;-66
2022/12/25 12:25:06;;;;;;;17.03;8.67;;;;;;;;;;5033947;28;20482;-65
2022/12/25 12:27:35;;;;;;;10.50;8.70;;;;;;;;;;5033964;28;20957;-65
2022/12/25 12:30:03;;;;;;;14.00;8.30;;;;;;;;;;5034203;28;20441;-65
2022/12/25 12:32:39;;;;;;;11.17;7.57;;;;;;;;;;5034934;28;20438;-66
2022/12/25 12:35:09;;;;;;;15.90;8.20;;;;;;;;;;5033903;28;20434;-65
2022/12/25 12:37:37;;;;;;;12.30;7.60;;;;;;;;;;5033853;28;20533;-65
2022/12/25 12:40:05;;;;;;;11.70;8.03;;;;;;;;;;5033694;28;20477;-65
2022/12/25 12:42:33;;;;;;;10.17;7.23;;;;;;;;;;5034064;28;20447;-65
2022/12/25 12:45:07;;;;;;;11.97;7.30;;;;;;;;;;5033886;28;20439;-65
2022/12/25 12:47:41;;;;;;;13.20;7.67;;;;;;;;;;5033903;28;20912;-65
2022/12/25 12:50:08;;;;;;;9.47;7.53;;;;;;;;;;5034031;28;20435;-65
2022/12/25 12:52:36;;;;;;;10.23;7.23;;;;;;;;;;5033592;28;20442;-65
2022/12/25 12:55:04;;;;;;;17.13;7.83;;;;;;;;;;5033596;28;20932;-65
2022/12/25 12:57:37;;;;;;;12.77;7.47;;;;;;;;;;5033851;28;20451;-65
2022/12/25 13:00:05;;;;;;;11.43;8.20;;;;;;;;;;5033715;28;20467;-65
2022/12/25 13:02:59;;;;;;;11.97;7.60;;;;;;;;;;5033823;28;20489;-65
2022/12/25 13:05:32;;;;;;;22.20;10.73;;;;;;;;;;5033723;28;20427;-65
2022/12/25 13:08:03;;;;;;;26.73;14.60;;;;;;;;;;5034054;28;20791;-65
2022/12/25 13:10:32;;;;;;;18.83;11.60;;;;;;;;;;5032932;28;20480;-65
2022/12/25 13:13:01;;;;;;;11.00;8.50;;;;;;;;;;5033278;28;20534;-65
2022/12/25 13:15:29;;;;;;;9.60;7.33;;;;;;;;;;5033171;28;20797;-65
2022/12/25 13:17:59;;;;;;;19.67;9.30;;;;;;;;;;5033616;28;20445;-65
2022/12/25 13:20:34;;;;;;;19.73;12.53;;;;;;;;;;5033584;28;20230;-65
2022/12/25 13:23:01;;;;;;;17.37;12.50;;;;;;;;;;5033472;28;20907;-65
2022/12/25 13:25:28;;;;;;;23.53;14.73;;;;;;;;;;5033448;28;20478;-65
2022/12/25 13:27:56;;;;;;;13.30;9.97;;;;;;;;;;5033117;28;20449;-65
2022/12/25 13:30:24;;;;;;;14.03;9.07;;;;;;;;;;5033469;28;20497;-65
2022/12/25 13:32:51;;;;;;;42.73;21.60;;;;;;;;;;5033076;28;20450;-65
2022/12/25 13:35:21;;;;;;;14.23;10.00;;;;;;;;;;5033332;28;20433;-65
2022/12/25 13:37:48;;;;;;;14.60;9.87;;;;;;;;;;5032144;28;20430;-65
2022/12/25 13:40:21;;;;;;;12.27;10.00;;;;;;;;;;5033247;28;20486;-66
2022/12/25 13:42:48;;;;;;;23.23;12.30;;;;;;;;;;5033663;28;20834;-65
2022/12/25 13:45:20;;;;;;;14.90;10.47;;;;;;;;;;5035503;28;20446;-65
2022/12/25 13:47:48;;;;;;;11.90;9.00;;;;;;;;;;5037045;28;20436;-65
2022/12/25 13:50:16;;;;;;;15.97;10.40;;;;;;;;;;5036837;28;20438;-65
2022/12/25 13:52:45;;;;;;;14.48;9.60;;;;;;;;;;5037130;28;20803;-65
2022/12/25 13:55:13;;;;;;;12.27;10.70;;;;;;;;;;5037083;28;20205;-65
2022/12/25 13:57:41;;;;;;;16.70;11.65;;;;;;;;;;5037125;28;20444;-65
2022/12/25 14:00:18;;;;;;;13.30;11.17;;;;;;;;;;5037082;28;20581;-65
2022/12/25 14:02:45;;;;;;;18.70;11.43;;;;;;;;;;5036688;28;20422;-65
2022/12/25 14:05:26;;;;;;;23.63;14.57;;;;;;;;;;5036833;28;20195;-65
2022/12/25 14:07:56;;;;;;;15.35;10.73;;;;;;;;;;5036824;28;20198;-65
2022/12/25 14:10:23;;;;;;;18.10;13.65;;;;;;;;;;5036754;28;20228;-66
2022/12/25 14:12:52;;;;;;;17.37;11.93;;;;;;;;;;5036810;28;20214;-65
2022/12/25 14:15:20;;;;;;;18.57;11.57;;;;;;;;;;5037134;28;20443;-65
2022/12/25 14:17:48;;;;;;;17.90;11.60;;;;;;;;;;5036671;28;20438;-65
2022/12/25 14:20:23;;;;;;;18.38;11.88;;;;;;;;;;5036657;28;20524;-66
2022/12/25 14:22:50;;;;;;;17.80;10.77;;;;;;;;;;5036372;28;20186;-65
2022/12/25 14:25:20;;;;;;;16.50;10.63;;;;;;;;;;5036539;28;20439;-65
2022/12/25 14:27:49;;;;;;;16.20;11.50;;;;;;;;;;5036524;28;20437;-65
2022/12/25 14:30:17;;;;;;;13.10;11.00;;;;;;;;;;5036133;28;20438;-65
2022/12/25 14:32:46;;;;;;;15.20;11.33;;;;;;;;;;5036437;28;20446;-65
2022/12/25 14:35:13;;;;;;;14.70;11.20;;;;;;;;;;5037014;28;20453;-65
2022/12/25 14:37:41;;;;;;;12.80;10.70;;;;;;;;;;5036592;28;20200;-65
2022/12/25 14:40:21;;;;;;;14.70;12.83;;;;;;;;;;5035978;28;20456;-65
2022/12/25 14:42:55;;;;;;;14.50;11.20;;;;;;;;;;5036617;28;20493;-65
2022/12/25 14:45:27;;;;;;;12.60;10.40;;;;;;;;;;5035732;28;20481;-65
2022/12/25 14:47:54;;;;;;;14.73;11.87;;;;;;;;;;5035871;28;20452;-65
2022/12/25 14:50:26;;;;;;;12.30;10.97;;;;;;;;;;5036008;28;20446;-66
2022/12/25 14:52:53;;;;;;;18.47;12.37;;;;;;;;;;5035809;28;20795;-65
2022/12/25 14:55:23;;;;;;;14.20;10.40;;;;;;;;;;5035220;28;20441;-66
2022/12/25 14:57:51;;;;;;;15.13;12.10;;;;;;;;;;5035770;28;20450;-65
2022/12/25 15:00:22;;;;;;;13.97;12.00;;;;;;;;;;5035531;28;20457;-65
2022/12/25 15:02:50;;;;;;;16.30;12.50;;;;;;;;;;5036338;28;20442;-65
2022/12/25 15:05:24;;;;;;;17.67;12.83;;;;;;;;;;5035846;28;20934;-65
2022/12/25 15:07:58;;;;;;;15.43;12.87;;;;;;;;;;5035927;28;20849;-65
2022/12/25 15:10:27;;;;;;;17.07;12.90;;;;;;;;;;5035318;28;20838;-66
2022/12/25 15:12:54;;;;;;;23.83;13.70;;;;;;;;;;5035766;28;20927;-65
2022/12/25 15:15:21;;;;;;;19.20;14.67;;;;;;;;;;5035551;28;20458;-65
2022/12/25 15:17:49;;;;;;;18.30;13.43;;;;;;;;;;5035562;28;20450;-65
2022/12/25 15:20:16;;;;;;;18.23;14.60;;;;;;;;;;5035118;28;20457;-66
2022/12/25 15:22:44;;;;;;;17.43;14.00;;;;;;;;;;5035346;28;20955;-65
2022/12/25 15:25:13;;;;;;;15.67;13.23;;;;;;;;;;5035759;28;20549;-65
2022/12/25 15:27:42;;;;;;;17.10;14.60;;;;;;;;;;5035288;28;20474;-65
2022/12/25 15:30:09;;;;;;;20.17;14.33;;;;;;;;;;5035449;28;20442;-65
2022/12/25 15:32:37;;;;;;;19.52;14.68;;;;;;;;;;5035206;28;20459;-65
2022/12/25 15:35:04;;;;;;;19.97;14.63;;;;;;;;;;5035404;28;20582;-65
2022/12/25 15:37:31;;;;;;;17.27;13.57;;;;;;;;;;5035149;28;20533;-65
2022/12/25 15:39:58;;;;;;;22.17;14.50;;;;;;;;;;5035337;28;20446;-65
2022/12/25 15:42:26;;;;;;;20.70;14.47;;;;;;;;;;5034534;28;20967;-65
2022/12/25 15:44:54;;;;;;;19.87;14.73;;;;;;;;;;5034805;28;20915;-65
2022/12/25 15:47:21;;;;;;;23.97;16.03;;;;;;;;;;5034976;28;20438;-65
2022/12/25 15:49:49;;;;;;;23.87;14.90;;;;;;;;;;5035009;28;20442;-65
2022/12/25 15:52:17;;;;;;;22.43;16.33;;;;;;;;;;5034867;28;20795;-65
2022/12/25 15:54:44;;;;;;;23.33;16.20;;;;;;;;;;5034790;28;20446;-65
2022/12/25 15:57:16;;;;;;;22.97;17.10;;;;;;;;;;5035017;28;20443;-65
2022/12/25 15:59:43;;;;;;;23.63;18.40;;;;;;;;;;5034503;28;20426;-65
2022/12/25 16:02:14;;;;;;;25.53;17.90;;;;;;;;;;5034196;28;20481;-65
2022/12/25 16:04:42;;;;;;;25.92;19.20;;;;;;;;;;5034671;28;20518;-65
2022/12/25 16:07:10;;;;;;;23.40;18.00;;;;;;;;;;5039479;28;20205;-66
2022/12/25 16:09:37;;;;;;;21.20;16.90;;;;;;;;;;5054641;28;20556;-65
2022/12/25 16:12:04;;;;;;;29.03;18.80;;;;;;;;;;5054489;28;20442;-65
2022/12/25 16:14:31;;;;;;;22.13;16.83;;;;;;;;;;5054265;28;20451;-66
2022/12/25 16:16:58;;;;;;;25.83;17.10;;;;;;;;;;5054508;28;20441;-66
2022/12/25 16:19:27;;;;;;;22.93;17.10;;;;;;;;;;5054583;28;20455;-65